sensor_id;sensor_type;location;lat;lon;timestamp;temperature;humidity
30702;DHT22;17451;49.908;7.980;2022-08-14T00:00:24;24.10;62.00
30702;DHT22;17451;49.908;7.980;2022-08-14T00:02:50;24.10;62.20
30702;DHT22;17451;49.908;7.980;2022-08-14T00:05:16;24.20;62.30
30702;DHT22;17451;49.908;7.980;2022-08-14T00:07:43;24.30;62.30
30702;DHT22;17451;49.908;7.980;2022-08-14T00:10:10;24.20;62.50
30702;DHT22;17451;49.908;7.980;2022-08-14T00:12:36;24.20;62.50
30702;DHT22;17451;49.908;7.980;2022-08-14T00:15:04;24.20;62.80
30702;DHT22;17451;49.908;7.980;2022-08-14T00:17:30;24.10;63.30
30702;DHT22;17451;49.908;7.980;2022-08-14T00:19:56;24.10;63.10
30702;DHT22;17451;49.908;7.980;2022-08-14T00:22:21;24.00;63.00
30702;DHT22;17451;49.908;7.980;2022-08-14T00:24:47;24.00;63.60
30702;DHT22;17451;49.908;7.980;2022-08-14T00:27:13;24.00;64.10
30702;DHT22;17451;49.908;7.980;2022-08-14T00:29:38;24.10;64.80
30702;DHT22;17451;49.908;7.980;2022-08-14T00:32:04;24.10;65.40
30702;DHT22;17451;49.908;7.980;2022-08-14T00:34:30;24.10;65.90
30702;DHT22;17451;49.908;7.980;2022-08-14T00:36:55;24.10;65.90
30702;DHT22;17451;49.908;7.980;2022-08-14T00:39:21;24.10;66.30
30702;DHT22;17451;49.908;7.980;2022-08-14T00:41:48;24.10;66.20
30702;DHT22;17451;49.908;7.980;2022-08-14T00:44:14;24.10;66.90
30702;DHT22;17451;49.908;7.980;2022-08-14T00:46:39;24.00;66.90
30702;DHT22;17451;49.908;7.980;2022-08-14T00:49:05;24.10;66.90
30702;DHT22;17451;49.908;7.980;2022-08-14T00:51:32;24.00;67.10
30702;DHT22;17451;49.908;7.980;2022-08-14T00:53:59;24.00;67.20
30702;DHT22;17451;49.908;7.980;2022-08-14T00:56:25;23.90;67.30
30702;DHT22;17451;49.908;7.980;2022-08-14T00:58:50;23.90;67.60
30702;DHT22;17451;49.908;7.980;2022-08-14T01:01:18;23.80;67.80
30702;DHT22;17451;49.908;7.980;2022-08-14T01:03:44;23.80;67.70
30702;DHT22;17451;49.908;7.980;2022-08-14T01:06:10;23.70;67.50
30702;DHT22;17451;49.908;7.980;2022-08-14T01:08:37;23.70;67.80
30702;DHT22;17451;49.908;7.980;2022-08-14T01:11:06;23.70;67.90
30702;DHT22;17451;49.908;7.980;2022-08-14T01:13:42;23.60;68.60
30702;DHT22;17451;49.908;7.980;2022-08-14T01:16:09;23.60;69.20
30702;DHT22;17451;49.908;7.980;2022-08-14T01:18:35;23.60;70.10
30702;DHT22;17451;49.908;7.980;2022-08-14T01:21:35;23.50;71.10
30702;DHT22;17451;49.908;7.980;2022-08-14T01:24:02;23.50;72.00
30702;DHT22;17451;49.908;7.980;2022-08-14T01:26:28;23.50;72.90
30702;DHT22;17451;49.908;7.980;2022-08-14T01:28:54;23.50;73.60
30702;DHT22;17451;49.908;7.980;2022-08-14T01:31:23;23.40;74.20
30702;DHT22;17451;49.908;7.980;2022-08-14T01:33:49;23.30;75.20
30702;DHT22;17451;49.908;7.980;2022-08-14T01:36:17;23.30;75.50
30702;DHT22;17451;49.908;7.980;2022-08-14T01:38:49;23.40;75.50
30702;DHT22;17451;49.908;7.980;2022-08-14T01:41:19;23.40;75.70
30702;DHT22;17451;49.908;7.980;2022-08-14T01:43:49;23.40;75.90
30702;DHT22;17451;49.908;7.980;2022-08-14T01:46:17;23.20;77.40
30702;DHT22;17451;49.908;7.980;2022-08-14T01:48:43;23.10;78.10
30702;DHT22;17451;49.908;7.980;2022-08-14T01:51:09;23.10;78.30
30702;DHT22;17451;49.908;7.980;2022-08-14T01:53:37;23.10;78.50
30702;DHT22;17451;49.908;7.980;2022-08-14T01:56:04;23.20;78.80
30702;DHT22;17451;49.908;7.980;2022-08-14T01:58:30;23.00;79.70
30702;DHT22;17451;49.908;7.980;2022-08-14T02:00:56;23.10;79.90
30702;DHT22;17451;49.908;7.980;2022-08-14T02:03:24;22.90;80.80
30702;DHT22;17451;49.908;7.980;2022-08-14T02:05:50;22.90;81.30
30702;DHT22;17451;49.908;7.980;2022-08-14T02:08:23;23.00;81.30
30702;DHT22;17451;49.908;7.980;2022-08-14T02:10:54;23.00;81.80
30702;DHT22;17451;49.908;7.980;2022-08-14T02:13:40;23.10;81.80
30702;DHT22;17451;49.908;7.980;2022-08-14T02:16:11;23.10;81.90
30702;DHT22;17451;49.908;7.980;2022-08-14T02:18:37;23.10;82.10
30702;DHT22;17451;49.908;7.980;2022-08-14T02:21:04;23.10;82.70
30702;DHT22;17451;49.908;7.980;2022-08-14T02:23:30;23.20;82.70
30702;DHT22;17451;49.908;7.980;2022-08-14T02:25:56;23.30;82.50
30702;DHT22;17451;49.908;7.980;2022-08-14T02:28:24;23.30;82.80
30702;DHT22;17451;49.908;7.980;2022-08-14T02:30:50;23.20;83.30
30702;DHT22;17451;49.908;7.980;2022-08-14T02:33:15;23.10;84.40
30702;DHT22;17451;49.908;7.980;2022-08-14T02:35:42;23.00;85.20
30702;DHT22;17451;49.908;7.980;2022-08-14T02:38:08;23.00;85.50
30702;DHT22;17451;49.908;7.980;2022-08-14T02:40:34;23.00;85.80
30702;DHT22;17451;49.908;7.980;2022-08-14T02:43:00;23.00;86.50
30702;DHT22;17451;49.908;7.980;2022-08-14T02:45:26;23.00;87.20
30702;DHT22;17451;49.908;7.980;2022-08-14T02:48:02;22.90;87.50
30702;DHT22;17451;49.908;7.980;2022-08-14T02:50:31;23.00;87.70
30702;DHT22;17451;49.908;7.980;2022-08-14T02:52:56;23.00;88.20
30702;DHT22;17451;49.908;7.980;2022-08-14T02:55:22;22.90;88.60
30702;DHT22;17451;49.908;7.980;2022-08-14T02:57:48;22.90;89.50
30702;DHT22;17451;49.908;7.980;2022-08-14T03:00:18;22.90;89.90
30702;DHT22;17451;49.908;7.980;2022-08-14T03:02:45;22.80;86.20
30702;DHT22;17451;49.908;7.980;2022-08-14T03:05:11;22.50;82.40
30702;DHT22;17451;49.908;7.980;2022-08-14T03:07:37;22.40;81.60
30702;DHT22;17451;49.908;7.980;2022-08-14T03:10:03;22.40;80.50
30702;DHT22;17451;49.908;7.980;2022-08-14T03:12:31;22.40;80.50
30702;DHT22;17451;49.908;7.980;2022-08-14T03:14:56;22.30;81.40
30702;DHT22;17451;49.908;7.980;2022-08-14T03:17:23;22.20;82.60
30702;DHT22;17451;49.908;7.980;2022-08-14T03:19:48;22.20;82.70
30702;DHT22;17451;49.908;7.980;2022-08-14T03:22:16;22.20;83.10
30702;DHT22;17451;49.908;7.980;2022-08-14T03:24:42;22.20;83.30
30702;DHT22;17451;49.908;7.980;2022-08-14T03:27:08;22.30;83.60
30702;DHT22;17451;49.908;7.980;2022-08-14T03:29:34;22.30;84.20
30702;DHT22;17451;49.908;7.980;2022-08-14T03:32:00;22.20;87.70
30702;DHT22;17451;49.908;7.980;2022-08-14T03:34:26;22.20;90.60
30702;DHT22;17451;49.908;7.980;2022-08-14T03:36:52;22.20;91.10
30702;DHT22;17451;49.908;7.980;2022-08-14T03:39:21;22.20;92.00
30702;DHT22;17451;49.908;7.980;2022-08-14T03:41:47;22.30;92.10
30702;DHT22;17451;49.908;7.980;2022-08-14T03:44:16;22.30;92.40
30702;DHT22;17451;49.908;7.980;2022-08-14T03:46:42;22.30;92.40
30702;DHT22;17451;49.908;7.980;2022-08-14T03:49:08;22.30;92.70
30702;DHT22;17451;49.908;7.980;2022-08-14T03:51:34;22.30;93.00
30702;DHT22;17451;49.908;7.980;2022-08-14T03:54:01;22.20;93.20
30702;DHT22;17451;49.908;7.980;2022-08-14T03:56:27;22.20;93.50
30702;DHT22;17451;49.908;7.980;2022-08-14T03:58:59;22.20;93.90
30702;DHT22;17451;49.908;7.980;2022-08-14T04:01:29;22.00;94.50
30702;DHT22;17451;49.908;7.980;2022-08-14T04:03:55;22.00;94.70
30702;DHT22;17451;49.908;7.980;2022-08-14T04:06:26;22.00;95.10
30702;DHT22;17451;49.908;7.980;2022-08-14T04:08:52;21.90;95.60
30702;DHT22;17451;49.908;7.980;2022-08-14T04:11:18;21.90;95.80
30702;DHT22;17451;49.908;7.980;2022-08-14T04:13:44;21.80;96.10
30702;DHT22;17451;49.908;7.980;2022-08-14T04:16:11;21.90;96.40
30702;DHT22;17451;49.908;7.980;2022-08-14T04:18:42;21.90;96.50
30702;DHT22;17451;49.908;7.980;2022-08-14T04:21:08;21.90;96.80
30702;DHT22;17451;49.908;7.980;2022-08-14T04:23:34;21.90;97.00
30702;DHT22;17451;49.908;7.980;2022-08-14T04:26:01;21.80;97.40
30702;DHT22;17451;49.908;7.980;2022-08-14T04:28:26;21.80;97.80
30702;DHT22;17451;49.908;7.980;2022-08-14T04:30:52;21.80;97.90
30702;DHT22;17451;49.908;7.980;2022-08-14T04:33:17;21.90;97.90
30702;DHT22;17451;49.908;7.980;2022-08-14T04:35:43;22.00;97.70
30702;DHT22;17451;49.908;7.980;2022-08-14T04:38:09;22.10;97.90
30702;DHT22;17451;49.908;7.980;2022-08-14T04:40:54;22.00;98.00
30702;DHT22;17451;49.908;7.980;2022-08-14T04:43:38;22.10;98.00
30702;DHT22;17451;49.908;7.980;2022-08-14T04:46:06;22.00;98.40
30702;DHT22;17451;49.908;7.980;2022-08-14T04:48:32;22.10;98.50
30702;DHT22;17451;49.908;7.980;2022-08-14T04:50:58;22.10;98.60
30702;DHT22;17451;49.908;7.980;2022-08-14T04:53:25;22.20;98.60
30702;DHT22;17451;49.908;7.980;2022-08-14T04:55:51;22.30;97.80
30702;DHT22;17451;49.908;7.980;2022-08-14T04:58:18;22.30;97.20
30702;DHT22;17451;49.908;7.980;2022-08-14T05:00:45;22.20;96.40
30702;DHT22;17451;49.908;7.980;2022-08-14T05:03:18;22.20;96.00
30702;DHT22;17451;49.908;7.980;2022-08-14T05:05:52;22.10;95.90
30702;DHT22;17451;49.908;7.980;2022-08-14T05:08:18;22.10;95.70
30702;DHT22;17451;49.908;7.980;2022-08-14T05:10:45;22.10;95.50
30702;DHT22;17451;49.908;7.980;2022-08-14T05:13:11;22.10;95.10
30702;DHT22;17451;49.908;7.980;2022-08-14T05:15:38;22.10;95.00
30702;DHT22;17451;49.908;7.980;2022-08-14T05:18:09;22.00;95.00
30702;DHT22;17451;49.908;7.980;2022-08-14T05:20:41;22.00;95.00
30702;DHT22;17451;49.908;7.980;2022-08-14T05:23:12;22.00;95.10
30702;DHT22;17451;49.908;7.980;2022-08-14T05:25:39;22.00;95.20
30702;DHT22;17451;49.908;7.980;2022-08-14T05:28:08;22.00;95.30
30702;DHT22;17451;49.908;7.980;2022-08-14T05:30:35;22.00;95.60
30702;DHT22;17451;49.908;7.980;2022-08-14T05:33:01;22.00;96.10
30702;DHT22;17451;49.908;7.980;2022-08-14T05:35:26;22.00;96.50
30702;DHT22;17451;49.908;7.980;2022-08-14T05:37:52;22.10;96.90
30702;DHT22;17451;49.908;7.980;2022-08-14T05:40:18;22.20;97.00
30702;DHT22;17451;49.908;7.980;2022-08-14T05:42:43;22.30;96.80
30702;DHT22;17451;49.908;7.980;2022-08-14T05:45:09;22.30;96.80
30702;DHT22;17451;49.908;7.980;2022-08-14T05:47:39;22.40;97.20
30702;DHT22;17451;49.908;7.980;2022-08-14T05:50:06;22.50;97.00
30702;DHT22;17451;49.908;7.980;2022-08-14T05:52:32;22.60;96.60
30702;DHT22;17451;49.908;7.980;2022-08-14T05:54:58;22.60;96.60
30702;DHT22;17451;49.908;7.980;2022-08-14T05:57:23;22.70;96.60
30702;DHT22;17451;49.908;7.980;2022-08-14T05:59:49;22.60;95.60
30702;DHT22;17451;49.908;7.980;2022-08-14T06:02:14;22.40;95.70
30702;DHT22;17451;49.908;7.980;2022-08-14T06:04:40;22.40;95.70
30702;DHT22;17451;49.908;7.980;2022-08-14T06:07:15;22.30;95.90
30702;DHT22;17451;49.908;7.980;2022-08-14T06:09:41;22.40;96.10
30702;DHT22;17451;49.908;7.980;2022-08-14T06:12:07;22.40;96.20
30702;DHT22;17451;49.908;7.980;2022-08-14T06:14:33;22.60;96.00
30702;DHT22;17451;49.908;7.980;2022-08-14T06:16:58;22.70;95.90
30702;DHT22;17451;49.908;7.980;2022-08-14T06:19:24;22.80;95.90
30702;DHT22;17451;49.908;7.980;2022-08-14T06:21:49;22.90;95.80
30702;DHT22;17451;49.908;7.980;2022-08-14T06:24:15;22.90;95.70
30702;DHT22;17451;49.908;7.980;2022-08-14T06:26:41;22.90;96.00
30702;DHT22;17451;49.908;7.980;2022-08-14T06:29:07;23.00;95.80
30702;DHT22;17451;49.908;7.980;2022-08-14T06:31:32;23.00;95.90
30702;DHT22;17451;49.908;7.980;2022-08-14T06:33:58;23.10;98.50
30702;DHT22;17451;49.908;7.980;2022-08-14T06:36:24;23.10;98.60
30702;DHT22;17451;49.908;7.980;2022-08-14T06:38:50;23.30;98.60
30702;DHT22;17451;49.908;7.980;2022-08-14T06:41:16;23.50;98.30
30702;DHT22;17451;49.908;7.980;2022-08-14T06:43:41;23.60;98.50
30702;DHT22;17451;49.908;7.980;2022-08-14T06:46:07;23.70;98.10
30702;DHT22;17451;49.908;7.980;2022-08-14T06:48:34;23.70;98.60
30702;DHT22;17451;49.908;7.980;2022-08-14T06:50:59;23.60;99.20
30702;DHT22;17451;49.908;7.980;2022-08-14T06:53:25;23.60;99.00
30702;DHT22;17451;49.908;7.980;2022-08-14T06:55:51;23.80;98.80
30702;DHT22;17451;49.908;7.980;2022-08-14T06:58:17;23.90;98.70
30702;DHT22;17451;49.908;7.980;2022-08-14T07:00:43;24.10;98.40
30702;DHT22;17451;49.908;7.980;2022-08-14T07:03:29;24.30;98.10
30702;DHT22;17451;49.908;7.980;2022-08-14T07:06:13;24.50;97.60
30702;DHT22;17451;49.908;7.980;2022-08-14T07:08:39;24.60;97.40
30702;DHT22;17451;49.908;7.980;2022-08-14T07:11:08;24.70;97.40
30702;DHT22;17451;49.908;7.980;2022-08-14T07:13:34;24.80;97.20
30702;DHT22;17451;49.908;7.980;2022-08-14T07:15:59;24.80;97.00
30702;DHT22;17451;49.908;7.980;2022-08-14T07:18:26;24.80;97.20
30702;DHT22;17451;49.908;7.980;2022-08-14T07:20:52;24.90;96.90
30702;DHT22;17451;49.908;7.980;2022-08-14T07:23:19;25.00;96.70
30702;DHT22;17451;49.908;7.980;2022-08-14T07:25:46;25.10;96.20
30702;DHT22;17451;49.908;7.980;2022-08-14T07:28:13;25.10;96.40
30702;DHT22;17451;49.908;7.980;2022-08-14T07:30:39;25.10;96.20
30702;DHT22;17451;49.908;7.980;2022-08-14T07:33:05;25.30;95.90
30702;DHT22;17451;49.908;7.980;2022-08-14T07:35:31;25.50;95.70
30702;DHT22;17451;49.908;7.980;2022-08-14T07:37:57;25.60;95.50
30702;DHT22;17451;49.908;7.980;2022-08-14T07:40:23;25.80;95.50
30702;DHT22;17451;49.908;7.980;2022-08-14T07:42:48;25.80;94.70
30702;DHT22;17451;49.908;7.980;2022-08-14T07:45:14;26.00;94.20
30702;DHT22;17451;49.908;7.980;2022-08-14T07:47:40;26.10;93.70
30702;DHT22;17451;49.908;7.980;2022-08-14T07:50:11;26.20;93.80
30702;DHT22;17451;49.908;7.980;2022-08-14T07:52:37;26.20;93.50
30702;DHT22;17451;49.908;7.980;2022-08-14T07:55:02;25.90;93.90
30702;DHT22;17451;49.908;7.980;2022-08-14T07:57:29;26.10;93.80
30702;DHT22;17451;49.908;7.980;2022-08-14T07:59:54;26.30;93.70
30702;DHT22;17451;49.908;7.980;2022-08-14T08:02:20;26.50;92.90
30702;DHT22;17451;49.908;7.980;2022-08-14T08:04:50;26.70;92.90
30702;DHT22;17451;49.908;7.980;2022-08-14T08:07:18;26.80;92.40
30702;DHT22;17451;49.908;7.980;2022-08-14T08:09:47;27.00;91.90
30702;DHT22;17451;49.908;7.980;2022-08-14T08:12:15;27.20;91.40
30702;DHT22;17451;49.908;7.980;2022-08-14T08:14:41;27.30;90.80
30702;DHT22;17451;49.908;7.980;2022-08-14T08:17:10;27.30;91.10
30702;DHT22;17451;49.908;7.980;2022-08-14T08:19:37;27.30;90.80
30702;DHT22;17451;49.908;7.980;2022-08-14T08:22:03;27.30;90.40
30702;DHT22;17451;49.908;7.980;2022-08-14T08:24:29;27.30;90.30
30702;DHT22;17451;49.908;7.980;2022-08-14T08:26:55;27.50;90.10
30702;DHT22;17451;49.908;7.980;2022-08-14T08:29:21;27.70;89.30
30702;DHT22;17451;49.908;7.980;2022-08-14T08:31:47;27.90;87.60
30702;DHT22;17451;49.908;7.980;2022-08-14T08:34:16;28.00;87.70
30702;DHT22;17451;49.908;7.980;2022-08-14T08:36:42;28.20;87.30
30702;DHT22;17451;49.908;7.980;2022-08-14T08:39:08;28.30;86.10
30702;DHT22;17451;49.908;7.980;2022-08-14T08:41:41;28.10;86.50
30702;DHT22;17451;49.908;7.980;2022-08-14T08:44:07;28.20;86.30
30702;DHT22;17451;49.908;7.980;2022-08-14T08:46:33;28.50;85.10
30702;DHT22;17451;49.908;7.980;2022-08-14T08:48:59;28.90;83.70
30702;DHT22;17451;49.908;7.980;2022-08-14T08:51:31;29.10;81.00
30702;DHT22;17451;49.908;7.980;2022-08-14T08:54:04;29.40;80.70
30702;DHT22;17451;49.908;7.980;2022-08-14T08:56:40;29.70;78.20
30702;DHT22;17451;49.908;7.980;2022-08-14T08:59:22;29.70;78.00
30702;DHT22;17451;49.908;7.980;2022-08-14T09:01:53;30.00;76.80
30702;DHT22;17451;49.908;7.980;2022-08-14T09:04:20;30.20;75.70
30702;DHT22;17451;49.908;7.980;2022-08-14T09:06:46;30.40;74.40
30702;DHT22;17451;49.908;7.980;2022-08-14T09:09:23;30.60;74.00
30702;DHT22;17451;49.908;7.980;2022-08-14T09:11:50;30.90;73.30
30702;DHT22;17451;49.908;7.980;2022-08-14T09:14:18;31.10;71.70
30702;DHT22;17451;49.908;7.980;2022-08-14T09:16:44;31.40;70.70
30702;DHT22;17451;49.908;7.980;2022-08-14T09:19:10;31.60;69.20
30702;DHT22;17451;49.908;7.980;2022-08-14T09:21:37;31.90;69.40
30702;DHT22;17451;49.908;7.980;2022-08-14T09:24:03;32.10;68.50
30702;DHT22;17451;49.908;7.980;2022-08-14T09:26:30;32.30;68.50
30702;DHT22;17451;49.908;7.980;2022-08-14T09:28:55;31.70;68.10
30702;DHT22;17451;49.908;7.980;2022-08-14T09:46:07;33.50;59.70
30702;DHT22;17451;49.908;7.980;2022-08-14T09:51:20;33.90;58.40
30702;DHT22;17451;49.908;7.980;2022-08-14T09:54:01;34.00;57.40
30702;DHT22;17451;49.908;7.980;2022-08-14T10:52:42;35.40;48.80
30702;DHT22;17451;49.908;7.980;2022-08-14T10:55:20;35.90;47.60
30702;DHT22;17451;49.908;7.980;2022-08-14T11:09:51;34.70;46.80
30702;DHT22;17451;49.908;7.980;2022-08-14T11:14:57;35.00;46.50
30702;DHT22;17451;49.908;7.980;2022-08-14T11:17:54;35.40;46.40
30702;DHT22;17451;49.908;7.980;2022-08-14T11:23:39;35.90;42.20
30702;DHT22;17451;49.908;7.980;2022-08-14T11:29:30;36.10;42.40
30702;DHT22;17451;49.908;7.980;2022-08-14T11:32:07;35.60;43.40
30702;DHT22;17451;49.908;7.980;2022-08-14T11:34:44;36.30;44.30
30702;DHT22;17451;49.908;7.980;2022-08-14T11:37:36;37.20;44.10
30702;DHT22;17451;49.908;7.980;2022-08-14T11:40:22;37.30;39.90
30702;DHT22;17451;49.908;7.980;2022-08-14T11:57:26;39.00;39.10
30702;DHT22;17451;49.908;7.980;2022-08-14T12:00:12;39.50;38.50
30702;DHT22;17451;49.908;7.980;2022-08-14T12:18:01;42.20;35.40
30702;DHT22;17451;49.908;7.980;2022-08-14T12:20:33;44.30;33.20
30702;DHT22;17451;49.908;7.980;2022-08-14T12:23:30;45.50;32.60
30702;DHT22;17451;49.908;7.980;2022-08-14T12:26:02;44.90;31.90
30702;DHT22;17451;49.908;7.980;2022-08-14T12:31:34;44.80;31.70
30702;DHT22;17451;49.908;7.980;2022-08-14T12:34:11;44.80;30.80
30702;DHT22;17451;49.908;7.980;2022-08-14T12:39:32;44.70;31.50
30702;DHT22;17451;49.908;7.980;2022-08-14T12:42:13;46.40;30.40
30702;DHT22;17451;49.908;7.980;2022-08-14T12:47:25;46.30;30.00
30702;DHT22;17451;49.908;7.980;2022-08-14T12:50:04;45.20;30.30
30702;DHT22;17451;49.908;7.980;2022-08-14T12:58:28;44.80;30.90
30702;DHT22;17451;49.908;7.980;2022-08-14T13:01:00;45.30;30.00
30702;DHT22;17451;49.908;7.980;2022-08-14T13:03:32;45.90;30.00
30702;DHT22;17451;49.908;7.980;2022-08-14T13:06:00;47.40;29.60
30702;DHT22;17451;49.908;7.980;2022-08-14T13:08:31;48.50;28.70
30702;DHT22;17451;49.908;7.980;2022-08-14T13:13:54;49.50;27.90
30702;DHT22;17451;49.908;7.980;2022-08-14T13:16:24;47.70;29.50
30702;DHT22;17451;49.908;7.980;2022-08-14T13:19:03;48.10;28.80
30702;DHT22;17451;49.908;7.980;2022-08-14T13:21:45;48.20;28.60
30702;DHT22;17451;49.908;7.980;2022-08-14T13:24:14;46.50;29.10
30702;DHT22;17451;49.908;7.980;2022-08-14T13:26:55;44.30;30.80
30702;DHT22;17451;49.908;7.980;2022-08-14T13:29:38;43.90;31.00
30702;DHT22;17451;49.908;7.980;2022-08-14T13:35:14;42.90;32.10
30702;DHT22;17451;49.908;7.980;2022-08-14T13:37:56;43.10;31.90
30702;DHT22;17451;49.908;7.980;2022-08-14T13:55:44;43.80;31.20
30702;DHT22;17451;49.908;7.980;2022-08-14T14:02:06;39.80;34.90
30702;DHT22;17451;49.908;7.980;2022-08-14T14:04:32;39.20;35.40
30702;DHT22;17451;49.908;7.980;2022-08-14T14:10:16;37.60;37.30
30702;DHT22;17451;49.908;7.980;2022-08-14T14:12:51;37.20;37.60
30702;DHT22;17451;49.908;7.980;2022-08-14T14:15:26;36.90;38.00
30702;DHT22;17451;49.908;7.980;2022-08-14T14:18:27;36.20;38.60
30702;DHT22;17451;49.908;7.980;2022-08-14T15:02:30;36.10;40.60
30702;DHT22;17451;49.908;7.980;2022-08-14T15:08:32;34.90;40.90
30702;DHT22;17451;49.908;7.980;2022-08-14T15:19:28;34.80;41.60
30702;DHT22;17451;49.908;7.980;2022-08-14T15:22:31;34.80;40.10
30702;DHT22;17451;49.908;7.980;2022-08-14T15:34:30;34.70;40.10
30702;DHT22;17451;49.908;7.980;2022-08-14T15:37:24;34.20;40.60
30702;DHT22;17451;49.908;7.980;2022-08-14T15:40:33;34.10;40.90
30702;DHT22;17451;49.908;7.980;2022-08-14T15:46:56;34.20;40.50
30702;DHT22;17451;49.908;7.980;2022-08-14T15:49:31;33.80;40.90
30702;DHT22;17451;49.908;7.980;2022-08-14T15:54:54;33.80;41.40
30702;DHT22;17451;49.908;7.980;2022-08-14T15:57:28;34.10;42.00
30702;DHT22;17451;49.908;7.980;2022-08-14T16:02:28;34.50;41.40
30702;DHT22;17451;49.908;7.980;2022-08-14T16:05:06;34.50;40.80
30702;DHT22;17451;49.908;7.980;2022-08-14T16:13:33;34.00;40.60
30702;DHT22;17451;49.908;7.980;2022-08-14T16:16:21;33.90;40.80
30702;DHT22;17451;49.908;7.980;2022-08-14T16:18:47;33.80;41.30
30702;DHT22;17451;49.908;7.980;2022-08-14T16:32:52;33.50;40.80
30702;DHT22;17451;49.908;7.980;2022-08-14T16:35:18;33.50;41.00
30702;DHT22;17451;49.908;7.980;2022-08-14T16:37:44;33.60;41.10
30702;DHT22;17451;49.908;7.980;2022-08-14T16:40:10;33.70;41.00
30702;DHT22;17451;49.908;7.980;2022-08-14T16:42:40;33.80;40.70
30702;DHT22;17451;49.908;7.980;2022-08-14T16:45:09;33.80;40.30
30702;DHT22;17451;49.908;7.980;2022-08-14T16:47:35;33.90;40.10
30702;DHT22;17451;49.908;7.980;2022-08-14T16:50:03;33.90;40.50
30702;DHT22;17451;49.908;7.980;2022-08-14T16:52:29;33.90;40.60
30702;DHT22;17451;49.908;7.980;2022-08-14T16:54:54;34.00;39.80
30702;DHT22;17451;49.908;7.980;2022-08-14T16:57:21;33.90;39.90
30702;DHT22;17451;49.908;7.980;2022-08-14T16:59:48;33.70;39.80
30702;DHT22;17451;49.908;7.980;2022-08-14T17:02:14;33.60;40.60
30702;DHT22;17451;49.908;7.980;2022-08-14T17:04:40;33.70;41.10
30702;DHT22;17451;49.908;7.980;2022-08-14T17:07:11;33.70;40.80
30702;DHT22;17451;49.908;7.980;2022-08-14T17:09:44;33.80;42.70
30702;DHT22;17451;49.908;7.980;2022-08-14T17:12:14;33.80;40.40
30702;DHT22;17451;49.908;7.980;2022-08-14T17:17:14;33.70;42.30
30702;DHT22;17451;49.908;7.980;2022-08-14T17:19:40;33.70;43.40
30702;DHT22;17451;49.908;7.980;2022-08-14T17:22:08;33.60;43.00
30702;DHT22;17451;49.908;7.980;2022-08-14T17:24:34;33.60;43.50
30702;DHT22;17451;49.908;7.980;2022-08-14T17:27:00;33.50;44.10
30702;DHT22;17451;49.908;7.980;2022-08-14T17:29:28;33.40;44.30
30702;DHT22;17451;49.908;7.980;2022-08-14T17:31:55;33.40;44.60
30702;DHT22;17451;49.908;7.980;2022-08-14T17:35:11;33.20;44.60
30702;DHT22;17451;49.908;7.980;2022-08-14T17:39:59;33.10;45.70
30702;DHT22;17451;49.908;7.980;2022-08-14T17:45:13;32.90;46.70
30702;DHT22;17451;49.908;7.980;2022-08-14T17:47:41;32.80;47.00
30702;DHT22;17451;49.908;7.980;2022-08-14T17:50:08;32.70;47.30
30702;DHT22;17451;49.908;7.980;2022-08-14T17:52:38;32.60;47.00
30702;DHT22;17451;49.908;7.980;2022-08-14T17:55:05;32.50;47.00
30702;DHT22;17451;49.908;7.980;2022-08-14T17:57:31;32.40;47.60
30702;DHT22;17451;49.908;7.980;2022-08-14T18:00:00;32.20;47.50
30702;DHT22;17451;49.908;7.980;2022-08-14T18:02:26;32.20;46.70
30702;DHT22;17451;49.908;7.980;2022-08-14T18:04:58;32.10;46.90
30702;DHT22;17451;49.908;7.980;2022-08-14T18:07:27;32.00;46.90
30702;DHT22;17451;49.908;7.980;2022-08-14T18:09:54;31.90;46.50
30702;DHT22;17451;49.908;7.980;2022-08-14T18:12:20;31.80;47.00
30702;DHT22;17451;49.908;7.980;2022-08-14T18:14:49;31.80;47.00
30702;DHT22;17451;49.908;7.980;2022-08-14T18:17:18;31.70;47.90
30702;DHT22;17451;49.908;7.980;2022-08-14T18:19:45;31.60;48.30
30702;DHT22;17451;49.908;7.980;2022-08-14T18:22:18;31.50;48.70
30702;DHT22;17451;49.908;7.980;2022-08-14T18:24:48;31.40;47.50
30702;DHT22;17451;49.908;7.980;2022-08-14T18:27:15;31.30;47.80
30702;DHT22;17451;49.908;7.980;2022-08-14T18:29:47;31.20;48.60
30702;DHT22;17451;49.908;7.980;2022-08-14T18:35:00;31.10;47.10
30702;DHT22;17451;49.908;7.980;2022-08-14T18:37:27;31.00;46.50
30702;DHT22;17451;49.908;7.980;2022-08-14T18:39:52;30.90;46.50
30702;DHT22;17451;49.908;7.980;2022-08-14T18:52:20;30.40;48.60
30702;DHT22;17451;49.908;7.980;2022-08-14T18:54:46;30.30;48.10
30702;DHT22;17451;49.908;7.980;2022-08-14T18:57:12;30.20;46.90
30702;DHT22;17451;49.908;7.980;2022-08-14T18:59:38;30.20;46.60
30702;DHT22;17451;49.908;7.980;2022-08-14T19:04:49;30.00;48.30
30702;DHT22;17451;49.908;7.980;2022-08-14T19:07:15;29.90;48.60
30702;DHT22;17451;49.908;7.980;2022-08-14T19:09:54;29.80;48.80
30702;DHT22;17451;49.908;7.980;2022-08-14T19:15:08;29.70;49.60
30702;DHT22;17451;49.908;7.980;2022-08-14T19:17:43;29.60;50.80
30702;DHT22;17451;49.908;7.980;2022-08-14T19:20:13;29.50;50.20
30702;DHT22;17451;49.908;7.980;2022-08-14T19:22:39;29.30;51.80
30702;DHT22;17451;49.908;7.980;2022-08-14T19:25:09;29.20;50.80
30702;DHT22;17451;49.908;7.980;2022-08-14T19:27:35;29.00;50.80
30702;DHT22;17451;49.908;7.980;2022-08-14T19:32:42;28.60;49.50
30702;DHT22;17451;49.908;7.980;2022-08-14T19:40:10;28.40;52.90
30702;DHT22;17451;49.908;7.980;2022-08-14T19:42:37;28.40;51.50
30702;DHT22;17451;49.908;7.980;2022-08-14T19:45:03;28.40;52.70
30702;DHT22;17451;49.908;7.980;2022-08-14T19:47:37;28.30;54.70
30702;DHT22;17451;49.908;7.980;2022-08-14T19:50:03;28.30;53.50
30702;DHT22;17451;49.908;7.980;2022-08-14T19:52:30;28.30;52.10
30702;DHT22;17451;49.908;7.980;2022-08-14T19:54:56;28.30;51.60
30702;DHT22;17451;49.908;7.980;2022-08-14T19:57:23;28.20;52.50
30702;DHT22;17451;49.908;7.980;2022-08-14T19:59:58;28.10;52.40
30702;DHT22;17451;49.908;7.980;2022-08-14T20:02:24;28.10;51.80
30702;DHT22;17451;49.908;7.980;2022-08-14T20:04:57;28.10;54.10
30702;DHT22;17451;49.908;7.980;2022-08-14T20:07:42;28.10;53.70
30702;DHT22;17451;49.908;7.980;2022-08-14T20:10:08;28.00;52.40
30702;DHT22;17451;49.908;7.980;2022-08-14T20:12:35;28.00;52.70
30702;DHT22;17451;49.908;7.980;2022-08-14T20:15:05;27.90;52.00
30702;DHT22;17451;49.908;7.980;2022-08-14T20:17:31;27.90;54.40
30702;DHT22;17451;49.908;7.980;2022-08-14T20:19:57;27.80;52.00
30702;DHT22;17451;49.908;7.980;2022-08-14T20:22:33;27.40;51.30
30702;DHT22;17451;49.908;7.980;2022-08-14T20:27:55;27.10;52.00
30702;DHT22;17451;49.908;7.980;2022-08-14T20:30:21;27.00;52.10
30702;DHT22;17451;49.908;7.980;2022-08-14T20:36:13;27.20;53.10
30702;DHT22;17451;49.908;7.980;2022-08-14T20:38:08;27.30;52.70